Terminal Aerodrome Forecast
Issued by NWS

Home | Current Version | Previous Version | Text Only | Print | Product List | Glossary On
Versions: 1 2 3 4 5 6 7 8 9 10 11 12 13 14 15 16
000
FTUS42 KMHX 300521
TAFOAJ
TAF
KOAJ 300521Z 3006/3106 00000KT P6SM BKN200
     FM301500 VRB05KT P6SM SCT040 OVC150
     FM310200 19003KT P6SM OVC030
      AMD LTD TO CLD VIS AND WIND=

USA.gov is the U.S. government's official web portal to all federal, state and local government web resources and services.